EDT,Max TemperatureF,Mean TemperatureF,Min TemperatureF,Max Dew PointF,MeanDew PointF,Min DewpointF,Max Humidity, Mean Humidity, Min Humidity, Max Sea Level PressureIn, Mean Sea Level PressureIn, Min Sea Level PressureIn, Max VisibilityMiles, Mean VisibilityMiles, Min VisibilityMiles, Max Wind SpeedMPH, Mean Wind SpeedMPH, Max Gust SpeedMPH,PrecipitationIn, CloudCover, Events, WindDirDegrees
2012-10-1,67,56,45,56,49,45,100,74,48,30.01,29.96,29.91,10,4,0,7,2,12,0.01,5,Fog-Rain,157
2012-10-2,66,62,58,63,60,56,100,94,87,30.00,29.96,29.91,10,3,0,12,4,15,0.54,8,Fog-Rain,355
2012-10-3,76,69,62,67,64,62,100,87,74,30.15,30.07,29.96,10,4,0,7,3,12,0.00,4,Fog,191
2012-10-4,77,71,65,68,63,52,100,75,50,30.18,30.15,30.12,10,5,0,13,6,16,0.03,3,Fog-Rain,302
2012-10-5,78,67,56,57,55,52,93,68,42,30.18,30.09,29.96,10,10,10,13,6,18,0.00,0,,192
2012-10-6,68,63,57,58,49,37,84,68,51,30.10,29.95,29.86,10,10,10,22,10,28,T,2,Rain,248
2012-10-7,51,49,46,47,41,37,80,73,66,30.22,30.13,30.06,10,10,9,10,5,15,0.01,6,Rain,274
2012-10-8,47,43,38,42,39,37,100,86,71,30.34,30.29,30.23,10,9,6,13,2,16,0.07,5,Rain,295
2012-10-9,60,52,43,47,44,42,100,79,57,30.27,30.20,30.10,10,8,3,10,2,15,0.00,7,,337
2012-10-10,66,56,45,50,45,40,100,73,45,30.12,30.01,29.89,10,6,0,20,7,32,0.00,5,Fog,261
2012-10-11,59,49,38,39,32,30,76,56,36,30.32,30.24,30.14,10,10,10,15,8,20,0.00,1,,272
2012-10-12,58,50,42,39,34,26,82,60,38,30.47,30.29,30.17,10,10,10,25,11,32,0.00,1,,297
2012-10-13,56,44,32,37,31,25,82,62,41,30.55,30.44,30.27,10,10,10,15,6,20,0.00,0,,167
2012-10-14,71,61,50,54,47,39,74,64,53,30.23,30.10,29.91,10,10,10,16,9,22,0.00,4,,168
2012-10-15,67,65,62,61,53,43,87,70,52,29.88,29.78,29.71,10,10,6,20,9,26,0.03,5,Rain,240
2012-10-16,60,55,49,43,40,38,80,64,47,29.97,29.92,29.86,10,10,10,21,10,30,0.00,4,,306
2012-10-17,65,52,38,49,42,37,92,70,48,30.04,29.98,29.93,10,10,6,14,4,15,0.00,0,,137
2012-10-18,65,58,51,57,52,47,89,76,63,29.96,29.88,29.82,10,9,2,22,11,29,0.00,4,Rain-Thunderstorm,153
2012-10-19,65,61,56,58,56,52,100,89,78,29.83,29.75,29.65,10,4,0,14,5,18,0.08,7,Fog-Rain,1
2012-10-20,61,54,46,45,40,36,86,63,39,29.96,29.83,29.73,10,10,10,22,9,31,0.00,3,,258
2012-10-21,62,52,42,43,39,37,83,63,42,30.17,30.10,29.98,10,10,10,17,9,21,0.00,1,,268
2012-10-22,68,54,40,46,42,37,92,67,42,30.25,30.18,30.13,10,10,10,12,4,15,0.00,0,,164
2012-10-23,71,61,50,57,52,46,100,81,61,30.18,30.12,30.06,10,8,2,15,4,20,0.16,3,Rain,147
2012-10-24,77,66,55,59,55,52,93,68,43,30.17,30.13,30.09,10,9,5,9,3,15,0.00,2,,185
2012-10-25,67,61,54,58,56,53,93,80,67,30.24,30.19,30.14,10,5,1,9,3,22,0.00,4,,64
2012-10-26,65,63,60,59,57,55,97,88,78,30.22,30.15,30.08,10,7,4,9,5,12,0.00,8,,127
2012-10-27,65,62,59,56,54,52,84,74,63,30.07,29.99,29.92,10,9,6,14,6,17,0.00,7,,38
2012-10-28,58,56,54,54,51,48,93,85,77,29.93,29.79,29.67,10,7,2,22,13,28,0.06,8,Rain,2
2012-10-29,50,49,47,49,45,40,100,93,86,29.68,29.23,28.69,10,5,2,37,18,51,2.25,8,Rain,328
2012-10-30,45,40,35,40,37,36,100,92,83,29.44,29.12,28.63,10,7,2,31,16,44,0.89,8,Rain,240
2012-10-31,46,44,43,35,34,33,76,68,60,29.67,29.52,29.43,10,10,9,12,8,18,0.01,8,,236